Christman Field Latest Observations
Date Time
MST
Temp
°F
RH
%
DewPt
°F
Wind
mph
Dir
°
Gust
mph
Dir
°
Press
in Hg
Solar
W/m^2
Prec
in
2019-04-25 00:55 45.6 71.3 36.9 10.2 349 14.1 349 24.908 0.0 0.00
2019-04-25 00:50 45.7 72.2 37.3 10.9 349 16.8 339 24.907 0.0 0.00
2019-04-25 00:45 46.2 71.9 37.6 12.2 351 21.6 8 24.907 0.0 0.00
2019-04-25 00:40 46.5 71.0 37.6 14.9 3 21.1 320 24.905 0.0 0.00
2019-04-25 00:35 46.7 71.9 38.1 17.1 350 21.6 353 24.906 0.0 0.00
2019-04-25 00:30 46.8 72.6 38.5 21.2 352 27.3 341 24.905 0.0 0.00
2019-04-25 00:25 47.1 72.4 38.7 23.8 338 29.7 337 24.903 0.0 0.00
2019-04-25 00:20 47.1 72.5 38.7 14.1 338 19.4 345 24.898 0.0 0.00
2019-04-25 00:15 47.1 72.6 38.8 19.0 339 28.1 350 24.897 0.0 0.00
2019-04-25 00:10 47.1 72.7 38.8 21.8 356 29.0 349 24.895 0.0 0.00
2019-04-25 00:05 47.3 71.9 38.7 22.1 353 30.7 332 24.893 0.0 0.00
2019-04-25 00:00 47.6 71.3 38.8 23.7 336 33.7 348 24.888 0.0 0.00
2019-04-24 23:55 48.0 71.0 39.0 23.8 341 32.2 320 24.881 0.0 0.00
2019-04-24 23:50 48.3 71.1 39.3 22.2 332 31.9 352 24.877 0.0 0.00
2019-04-24 23:45 48.5 70.5 39.4 23.6 349 33.2 344 24.871 0.0 0.00
2019-04-24 23:40 49.0 70.2 39.7 23.6 346 33.1 346 24.863 0.0 0.00
2019-04-24 23:35 49.3 70.3 40.1 22.4 358 30.7 19 24.853 0.0 0.00
2019-04-24 23:30 49.8 71.4 40.9 21.5 7 31.8 356 24.844 0.0 0.00
2019-04-24 23:25 50.5 70.6 41.3 22.2 359 30.8 358 24.835 0.0 0.00
2019-04-24 23:20 51.3 71.8 42.5 25.7 349 32.4 355 24.828 0.0 0.00
2019-04-24 23:15 53.1 71.7 44.2 27.2 359 45.5 14 24.823 0.0 0.00
2019-04-24 23:10 54.2 60.6 40.8 10.3 54 33.8 54 24.793 0.0 0.00
2019-04-24 23:05 54.2 49.5 35.7 5.0 356 5.8 353 24.780 0.0 0.00
2019-04-24 23:00 54.7 45.7 34.2 4.8 340 5.7 355 24.777 0.0 0.00
2019-04-24 22:55 53.3 47.6 33.9 3.4 330 4.6 301 24.774 0.0 0.00
2019-04-24 22:50 53.5 52.6 36.6 3.1 287 5.3 283 24.771 0.0 0.00
2019-04-24 22:45 56.6 45.8 36.0 3.9 296 5.3 298 24.769 0.0 0.00
2019-04-24 22:40 56.4 44.0 34.7 4.3 300 4.9 293 24.766 0.0 0.00
2019-04-24 22:35 55.9 44.4 34.5 4.7 315 5.9 259 24.763 0.0 0.00
2019-04-24 22:30 55.0 47.4 35.4 5.0 264 5.9 292 24.762 0.0 0.00
CIRA

Cooperative Institute for Research in the Atmosphere

Search Conferences


Sign up to receive email notification of new Conferences.

Fatal error: Call to undefined function es_subbox() in /home/cwis64/public_html/wp-content/themes/CIRA/page-conferences.php on line 19